Terminal Aerodrome Forecast
Issued by NWS

Home | Current Version | Previous Version | Text Only | Print | Product List | Glossary On
Versions: 1 2 3 4 5 6 7 8 9 10 11 12 13 14 15 16 17 18 19 20 21 22 23
000
FTUS42 KGSP 292330
TAFGMU
TAF
KGMU 292330Z 3000/3024 17003KT P6SM SCT045 OVC200
     FM300900 VRB02KT P6SM BKN008
     FM301100 VRB02KT 4SM BR BKN003
     FM301400 16003KT P6SM BKN008
     FM301600 16004KT P6SM BKN020
     FM302000 15005KT P6SM SCT040 PROB30 3021/3024 4SM -TSRA
      BKN040CB=

USA.gov is the U.S. government's official web portal to all federal, state and local government web resources and services.